createdAt,value
2022-10-31T00:17:01.731Z,14.00
2022-10-31T00:47:05.667Z,13.44
2022-10-31T01:17:09.680Z,13.23
2022-10-31T01:47:17.217Z,13.25
2022-10-31T02:17:21.244Z,13.03
2022-10-31T02:47:29.364Z,12.87
2022-10-31T03:48:11.279Z,12.86
2022-10-31T04:18:15.644Z,12.84
2022-10-31T04:48:19.774Z,12.79
2022-10-31T05:18:23.887Z,12.53
2022-10-31T05:48:27.978Z,12.07
2022-10-31T06:18:32.065Z,11.84
2022-10-31T06:48:36.431Z,11.78
2022-10-31T07:18:40.668Z,12.45
2022-10-31T07:48:44.783Z,13.23
2022-10-31T08:18:49.022Z,14.54
2022-10-31T08:48:53.397Z,16.34
2022-10-31T09:18:58.984Z,19.51
2022-10-31T09:49:18.569Z,22.04
2022-10-31T10:19:33.116Z,20.78
2022-10-31T10:49:43.153Z,20.56
2022-10-31T11:19:47.338Z,21.66
2022-10-31T11:49:51.665Z,21.03
2022-10-31T12:20:04.064Z,19.72
2022-10-31T12:50:18.882Z,20.85
2022-10-31T13:20:29.569Z,20.58
2022-10-31T13:50:34.966Z,19.64
2022-10-31T14:20:43.085Z,18.59
2022-10-31T14:50:52.434Z,17.94
2022-10-31T15:20:57.755Z,17.43
2022-10-31T15:51:03.294Z,16.66
2022-10-31T16:21:08.177Z,15.68
2022-10-31T16:51:12.621Z,15.31
2022-10-31T17:21:19.706Z,14.74
2022-10-31T17:51:23.724Z,14.26
2022-10-31T18:21:28.288Z,13.80
2022-10-31T18:51:32.441Z,13.53
2022-10-31T19:21:36.556Z,13.75
2022-10-31T19:51:40.674Z,13.79
2022-10-31T20:21:45.086Z,13.91
2022-10-31T20:51:49.319Z,13.69
2022-10-31T21:21:53.174Z,13.31
2022-10-31T21:51:57.371Z,13.12
2022-10-31T22:22:01.570Z,13.07
2022-10-31T22:52:05.867Z,13.19
2022-10-31T23:22:09.982Z,13.39
2022-10-31T23:52:15.051Z,13.66
